Roaz — CQVY — position and weather

sailwx.info

Track history (hours):
 
Tides and Currents Weather Stations Pressure Air Temp Water Temp Dewpoint Dewpoint Depression Visibility Wind Speed Wind Dir Waves Ship Positions

Roaz

Last reported at 2018-Jun-17 21:58 UTC. Time now 2018-Jun-17 22:18 UTC.
Position N 41°11' W 008°42'.

Length 82 m; draft 5.7 m.

Type: Cargo ship. MMSI: 255929000.

Date/timePositionNaut miles runAvg speedWind from/ knotsBaromVisibWave heightAir tempDewpointWater temp
2018-Jun-17 21:58N 41°11' W 008°42'0 0.0
2018-Jun-17 21:28N 41°11' W 008°42'0 0.0
2018-Jun-17 20:58N 41°11' W 008°42'0 0.0
2018-Jun-17 20:28N 41°11' W 008°42'0 0.0
2018-Jun-17 19:58N 41°11' W 008°42'0 0.0
2018-Jun-17 19:28N 41°11' W 008°42'0 0.0
2018-Jun-17 18:58N 41°11' W 008°42'0 0.0
2018-Jun-17 18:28N 41°11' W 008°42'0 0.0
2018-Jun-17 17:58N 41°11' W 008°42'0 0.0
2018-Jun-17 17:28N 41°11' W 008°42'0 0.0
2018-Jun-17 16:58N 41°11' W 008°42'0 0.0
2018-Jun-17 16:25N 41°11' W 008°42'0 0.0
2018-Jun-17 15:58N 41°11' W 008°42'0 0.0
2018-Jun-17 15:28N 41°11' W 008°42'0 0.0
2018-Jun-17 14:58N 41°11' W 008°42'0 0.0
2018-Jun-17 14:28N 41°11' W 008°42'0 0.0
2018-Jun-17 13:58N 41°11' W 008°42'0 0.0
2018-Jun-17 13:28N 41°11' W 008°42'0 0.0
2018-Jun-17 12:58N 41°11' W 008°42'2 4.5
2018-Jun-17 12:29N 41°09' W 008°42'115 7.2
2018-Jun-16 20:39N 39°24' W 009°43'1 6.8
2018-Jun-16 20:29N 39°23' W 009°43'3 7.1
2018-Jun-16 20:00N 39°20' W 009°43'4 7.4
2018-Jun-16 19:30N 39°16' W 009°43'4 7.7
2018-Jun-16 19:00N 39°12' W 009°43'4 7.9
2018-Jun-16 18:30N 39°08' W 009°43'4 7.9
2018-Jun-16 18:00N 39°04' W 009°42'4 8.0
2018-Jun-16 17:30N 39°00' W 009°42'4 7.8
2018-Jun-16 17:00N 38°56' W 009°42'4 7.8
2018-Jun-16 16:30N 38°52' W 009°43'4 7.4
2018-Jun-16 16:00N 38°49' W 009°42'4 7.2
2018-Jun-16 15:30N 38°45' W 009°41'4 7.3
2018-Jun-16 15:00N 38°42' W 009°41'4 7.3
2018-Jun-16 14:30N 38°38' W 009°39'4 7.0
2018-Jun-16 14:00N 38°36' W 009°35'4 7.3
2018-Jun-16 13:30N 38°34' W 009°32'4 7.3
2018-Jun-16 13:00N 38°31' W 009°29'4 7.8
2018-Jun-16 12:30N 38°29' W 009°25'4 8.5
2018-Jun-16 12:00N 38°26' W 009°20'4 8.8
2018-Jun-16 11:30N 38°23' W 009°16'4 8.6
2018-Jun-16 11:00N 38°22' W 009°11'510.1
2018-Jun-16 10:30N 38°24' W 009°05'510.3
2018-Jun-16 10:00N 38°27' W 008°59'4 6.8
2018-Jun-16 09:28N 38°30' W 008°56'0 0.0
2018-Jun-16 08:58N 38°30' W 008°56'0 0.0
2018-Jun-16 08:28N 38°30' W 008°56'0 0.0
2018-Jun-16 07:55N 38°30' W 008°56'0 0.0
2018-Jun-16 07:25N 38°30' W 008°56'0 0.0
2018-Jun-16 06:49N 38°30' W 008°56'0 0.0
2018-Jun-16 06:28N 38°30' W 008°56'0 0.0
2018-Jun-16 05:58N 38°30' W 008°56'0 0.0
2018-Jun-16 05:22N 38°30' W 008°56'0 0.0
2018-Jun-16 04:58N 38°30' W 008°56'0 0.0
2018-Jun-16 04:25N 38°30' W 008°56'0 0.0
2018-Jun-16 03:58N 38°30' W 008°56'0 0.0
2018-Jun-16 03:25N 38°30' W 008°56'0 0.0
2018-Jun-16 02:55N 38°30' W 008°56'0 0.0
2018-Jun-16 02:25N 38°30' W 008°56'0 0.0
2018-Jun-16 01:55N 38°30' W 008°56'0 0.0
2018-Jun-16 01:25N 38°30' W 008°56'0 0.0
2018-Jun-16 00:58N 38°30' W 008°56'0 0.0
2018-Jun-16 00:28N 38°30' W 008°56'0 0.0
2018-Jun-15 23:55N 38°30' W 008°56'0 0.0
2018-Jun-15 23:28N 38°30' W 008°56'0 0.0
2018-Jun-15 22:58N 38°30' W 008°56'2 4.1
2018-Jun-15 22:29N 38°28' W 008°57'5 9.8
2018-Jun-15 22:00N 38°25' W 009°02'510.6
2018-Jun-15 21:30N 38°23' W 009°09'5 9.7
2018-Jun-15 21:00N 38°23' W 009°15'510.4
2018-Jun-15 20:31N 38°25' W 009°20'510.6
2018-Jun-15 20:00N 38°29' W 009°26'510.8
2018-Jun-15 19:31N 38°32' W 009°31'510.7
2018-Jun-15 19:01N 38°35' W 009°36'611.0
2018-Jun-15 18:31N 38°39' W 009°42'611.1
2018-Jun-15 18:00N 38°44' W 009°43'611.6
2018-Jun-15 17:30N 38°50' W 009°44'611.0
2018-Jun-15 17:01N 38°56' W 009°44'611.0
2018-Jun-15 16:30N 39°01' W 009°44'510.9
2018-Jun-15 16:01N 39°07' W 009°43'510.9
2018-Jun-15 15:31N 39°12' W 009°43'510.8
2018-Jun-15 15:01N 39°17' W 009°43'811.0
2018-Jun-15 14:20N 39°25' W 009°43'1311.3
2018-Jun-15 13:13N 39°37' W 009°41'96 2.2
2018-Jun-13 17:58N 41°06' W 008°50'108 7.7
2018-Jun-13 03:51N 39°25' W 009°43'3 8.3
2018-Jun-13 03:30N 39°22' W 009°43'4 8.5
2018-Jun-13 03:00N 39°18' W 009°43'4 8.7
2018-Jun-13 02:30N 39°13' W 009°43'4 8.5
2018-Jun-13 02:00N 39°09' W 009°43'4 8.6
2018-Jun-13 01:30N 39°05' W 009°43'4 9.0
2018-Jun-13 01:00N 39°00' W 009°42'4 8.8
2018-Jun-13 00:30N 38°56' W 009°42'4 8.5
2018-Jun-13 00:00N 38°52' W 009°42'4 8.5
2018-Jun-12 23:31N 38°47' W 009°42'4 8.3
2018-Jun-12 23:00N 38°43' W 009°41'4 8.0
2018-Jun-12 22:30N 38°39' W 009°40'4 8.4
2018-Jun-12 22:00N 38°36' W 009°36'4 8.6
2018-Jun-12 21:30N 38°34' W 009°32'4 8.5
2018-Jun-12 21:00N 38°31' W 009°28'4 8.9
2018-Jun-12 20:30N 38°28' W 009°24'5 9.3
2018-Jun-12 20:00N 38°25' W 009°19'5 9.2
2018-Jun-12 19:30N 38°22' W 009°15'5 9.3
2018-Jun-12 19:00N 38°23' W 009°09'510.0
2018-Jun-12 18:31N 38°25' W 009°03'510.5
2018-Jun-12 18:01N 38°28' W 008°58'2 3.2
2018-Jun-12 17:19N 38°30' W 008°56'0 0.0
2018-Jun-12 16:55N 38°30' W 008°56'0 0.0
2018-Jun-12 16:13N 38°30' W 008°56'0 0.0
2018-Jun-12 15:58N 38°30' W 008°56'0 0.0
2018-Jun-12 15:25N 38°30' W 008°56'0 0.0
2018-Jun-12 14:58N 38°30' W 008°56'0 0.0
2018-Jun-12 14:28N 38°30' W 008°56'0 0.0
2018-Jun-12 13:58N 38°30' W 008°56'0 0.0
2018-Jun-12 13:28N 38°30' W 008°56'0 0.0
2018-Jun-12 12:55N 38°30' W 008°56'0 0.0
2018-Jun-12 12:28N 38°30' W 008°56'0 0.0
2018-Jun-12 11:58N 38°30' W 008°56'0 0.0
2018-Jun-12 11:28N 38°30' W 008°56'0 0.0
2018-Jun-12 10:55N 38°30' W 008°56'0 0.0
2018-Jun-12 10:28N 38°30' W 008°56'0 0.0
2018-Jun-12 09:58N 38°30' W 008°56'0 0.0
2018-Jun-12 09:28N 38°30' W 008°56'0 0.0
2018-Jun-12 08:58N 38°30' W 008°56'0 0.0
2018-Jun-12 08:28N 38°30' W 008°56'0 0.0
2018-Jun-12 07:58N 38°30' W 008°56'0 0.0
2018-Jun-12 07:19N 38°30' W 008°56'0 0.1
2018-Jun-12 07:00N 38°30' W 008°56'4 7.1
2018-Jun-12 06:30N 38°27' W 008°59'5 9.8
2018-Jun-12 06:01N 38°22' W 009°02'4 7.5
2018-Jun-12 05:30N 38°21' W 009°06'5 9.5
2018-Jun-12 05:00N 38°20' W 009°12'5 9.7
2018-Jun-12 04:30N 38°19' W 009°18'5 9.0
2018-Jun-12 04:00N 38°19' W 009°24'3 6.1
2018-Jun-12 03:30N 38°16' W 009°26'5 8.8
2018-Jun-12 02:59N 38°13' W 009°30'5 8.5
2018-Jun-12 02:24N 38°09' W 009°34'3 8.6
2018-Jun-12 02:00N 38°06' W 009°37'5 8.7
2018-Jun-12 01:29N 38°03' W 009°40'4 8.9
2018-Jun-12 01:00N 37°59' W 009°43'15 9.2
2018-Jun-11 23:21N 37°47' W 009°55'3 9.3
2018-Jun-11 23:00N 37°45' W 009°57'  
Track history (hours):
 
Tides and Currents Weather Stations Pressure Air Temp Water Temp Dewpoint Dewpoint Depression Visibility Wind Speed Wind Dir Waves Ship Positions

Roaz

Last reported at 2018-Jun-17 21:58 UTC. Time now 2018-Jun-17 22:18 UTC.
Position N 41°11' W 008°42'.

Length 82 m; draft 5.7 m.

Type: Cargo ship. MMSI: 255929000.

Date/timePositionNaut miles runAvg speedWind from/ knotsBaromVisibWave heightAir tempDewpointWater temp
2018-Jun-17 21:58N 41°11' W 008°42'0 0.0
2018-Jun-17 21:28N 41°11' W 008°42'0 0.0
2018-Jun-17 20:58N 41°11' W 008°42'0 0.0
2018-Jun-17 20:28N 41°11' W 008°42'0 0.0
2018-Jun-17 19:58N 41°11' W 008°42'0 0.0
2018-Jun-17 19:28N 41°11' W 008°42'0 0.0
2018-Jun-17 18:58N 41°11' W 008°42'0 0.0
2018-Jun-17 18:28N 41°11' W 008°42'0 0.0
2018-Jun-17 17:58N 41°11' W 008°42'0 0.0
2018-Jun-17 17:28N 41°11' W 008°42'0 0.0
2018-Jun-17 16:58N 41°11' W 008°42'0 0.0
2018-Jun-17 16:25N 41°11' W 008°42'0 0.0
2018-Jun-17 15:58N 41°11' W 008°42'0 0.0
2018-Jun-17 15:28N 41°11' W 008°42'0 0.0
2018-Jun-17 14:58N 41°11' W 008°42'0 0.0
2018-Jun-17 14:28N 41°11' W 008°42'0 0.0
2018-Jun-17 13:58N 41°11' W 008°42'0 0.0
2018-Jun-17 13:28N 41°11' W 008°42'0 0.0
2018-Jun-17 12:58N 41°11' W 008°42'2 4.5
2018-Jun-17 12:29N 41°09' W 008°42'115 7.2
2018-Jun-16 20:39N 39°24' W 009°43'1 6.8
2018-Jun-16 20:29N 39°23' W 009°43'3 7.1
2018-Jun-16 20:00N 39°20' W 009°43'4 7.4
2018-Jun-16 19:30N 39°16' W 009°43'4 7.7
2018-Jun-16 19:00N 39°12' W 009°43'4 7.9
2018-Jun-16 18:30N 39°08' W 009°43'4 7.9
2018-Jun-16 18:00N 39°04' W 009°42'4 8.0
2018-Jun-16 17:30N 39°00' W 009°42'4 7.8
2018-Jun-16 17:00N 38°56' W 009°42'4 7.8
2018-Jun-16 16:30N 38°52' W 009°43'4 7.4
2018-Jun-16 16:00N 38°49' W 009°42'4 7.2
2018-Jun-16 15:30N 38°45' W 009°41'4 7.3
2018-Jun-16 15:00N 38°42' W 009°41'4 7.3
2018-Jun-16 14:30N 38°38' W 009°39'4 7.0
2018-Jun-16 14:00N 38°36' W 009°35'4 7.3
2018-Jun-16 13:30N 38°34' W 009°32'4 7.3
2018-Jun-16 13:00N 38°31' W 009°29'4 7.8
2018-Jun-16 12:30N 38°29' W 009°25'4 8.5
2018-Jun-16 12:00N 38°26' W 009°20'4 8.8
2018-Jun-16 11:30N 38°23' W 009°16'4 8.6
2018-Jun-16 11:00N 38°22' W 009°11'510.1
2018-Jun-16 10:30N 38°24' W 009°05'510.3
2018-Jun-16 10:00N 38°27' W 008°59'4 6.8
2018-Jun-16 09:28N 38°30' W 008°56'0 0.0
2018-Jun-16 08:58N 38°30' W 008°56'0 0.0
2018-Jun-16 08:28N 38°30' W 008°56'0 0.0
2018-Jun-16 07:55N 38°30' W 008°56'0 0.0
2018-Jun-16 07:25N 38°30' W 008°56'0 0.0
2018-Jun-16 06:49N 38°30' W 008°56'0 0.0
2018-Jun-16 06:28N 38°30' W 008°56'0 0.0
2018-Jun-16 05:58N 38°30' W 008°56'0 0.0
2018-Jun-16 05:22N 38°30' W 008°56'0 0.0
2018-Jun-16 04:58N 38°30' W 008°56'0 0.0
2018-Jun-16 04:25N 38°30' W 008°56'0 0.0
2018-Jun-16 03:58N 38°30' W 008°56'0 0.0
2018-Jun-16 03:25N 38°30' W 008°56'0 0.0
2018-Jun-16 02:55N 38°30' W 008°56'0 0.0
2018-Jun-16 02:25N 38°30' W 008°56'0 0.0
2018-Jun-16 01:55N 38°30' W 008°56'0 0.0
2018-Jun-16 01:25N 38°30' W 008°56'0 0.0
2018-Jun-16 00:58N 38°30' W 008°56'0 0.0
2018-Jun-16 00:28N 38°30' W 008°56'0 0.0
2018-Jun-15 23:55N 38°30' W 008°56'0 0.0
2018-Jun-15 23:28N 38°30' W 008°56'0 0.0
2018-Jun-15 22:58N 38°30' W 008°56'2 4.1
2018-Jun-15 22:29N 38°28' W 008°57'5 9.8
2018-Jun-15 22:00N 38°25' W 009°02'510.6
2018-Jun-15 21:30N 38°23' W 009°09'5 9.7
2018-Jun-15 21:00N 38°23' W 009°15'510.4
2018-Jun-15 20:31N 38°25' W 009°20'510.6
2018-Jun-15 20:00N 38°29' W 009°26'510.8
2018-Jun-15 19:31N 38°32' W 009°31'510.7
2018-Jun-15 19:01N 38°35' W 009°36'611.0
2018-Jun-15 18:31N 38°39' W 009°42'611.1
2018-Jun-15 18:00N 38°44' W 009°43'611.6
2018-Jun-15 17:30N 38°50' W 009°44'611.0
2018-Jun-15 17:01N 38°56' W 009°44'611.0
2018-Jun-15 16:30N 39°01' W 009°44'510.9
2018-Jun-15 16:01N 39°07' W 009°43'510.9
2018-Jun-15 15:31N 39°12' W 009°43'510.8
2018-Jun-15 15:01N 39°17' W 009°43'811.0
2018-Jun-15 14:20N 39°25' W 009°43'1311.3
2018-Jun-15 13:13N 39°37' W 009°41'96 2.2
2018-Jun-13 17:58N 41°06' W 008°50'108 7.7
2018-Jun-13 03:51N 39°25' W 009°43'3 8.3
2018-Jun-13 03:30N 39°22' W 009°43'4 8.5
2018-Jun-13 03:00N 39°18' W 009°43'4 8.7
2018-Jun-13 02:30N 39°13' W 009°43'4 8.5
2018-Jun-13 02:00N 39°09' W 009°43'4 8.6
2018-Jun-13 01:30N 39°05' W 009°43'4 9.0
2018-Jun-13 01:00N 39°00' W 009°42'4 8.8
2018-Jun-13 00:30N 38°56' W 009°42'4 8.5
2018-Jun-13 00:00N 38°52' W 009°42'4 8.5
2018-Jun-12 23:31N 38°47' W 009°42'4 8.3
2018-Jun-12 23:00N 38°43' W 009°41'4 8.0
2018-Jun-12 22:30N 38°39' W 009°40'4 8.4
2018-Jun-12 22:00N 38°36' W 009°36'4 8.6
2018-Jun-12 21:30N 38°34' W 009°32'4 8.5
2018-Jun-12 21:00N 38°31' W 009°28'4 8.9
2018-Jun-12 20:30N 38°28' W 009°24'5 9.3
2018-Jun-12 20:00N 38°25' W 009°19'5 9.2
2018-Jun-12 19:30N 38°22' W 009°15'5 9.3
2018-Jun-12 19:00N 38°23' W 009°09'510.0
2018-Jun-12 18:31N 38°25' W 009°03'510.5
2018-Jun-12 18:01N 38°28' W 008°58'2 3.2
2018-Jun-12 17:19N 38°30' W 008°56'0 0.0
2018-Jun-12 16:55N 38°30' W 008°56'0 0.0
2018-Jun-12 16:13N 38°30' W 008°56'0 0.0
2018-Jun-12 15:58N 38°30' W 008°56'0 0.0
2018-Jun-12 15:25N 38°30' W 008°56'0 0.0
2018-Jun-12 14:58N 38°30' W 008°56'0 0.0
2018-Jun-12 14:28N 38°30' W 008°56'0 0.0
2018-Jun-12 13:58N 38°30' W 008°56'0 0.0
2018-Jun-12 13:28N 38°30' W 008°56'0 0.0
2018-Jun-12 12:55N 38°30' W 008°56'0 0.0
2018-Jun-12 12:28N 38°30' W 008°56'0 0.0
2018-Jun-12 11:58N 38°30' W 008°56'0 0.0
2018-Jun-12 11:28N 38°30' W 008°56'0 0.0
2018-Jun-12 10:55N 38°30' W 008°56'0 0.0
2018-Jun-12 10:28N 38°30' W 008°56'0 0.0
2018-Jun-12 09:58N 38°30' W 008°56'0 0.0
2018-Jun-12 09:28N 38°30' W 008°56'0 0.0
2018-Jun-12 08:58N 38°30' W 008°56'0 0.0
2018-Jun-12 08:28N 38°30' W 008°56'0 0.0
2018-Jun-12 07:58N 38°30' W 008°56'0 0.0
2018-Jun-12 07:19N 38°30' W 008°56'0 0.1
2018-Jun-12 07:00N 38°30' W 008°56'4 7.1
2018-Jun-12 06:30N 38°27' W 008°59'5 9.8
2018-Jun-12 06:01N 38°22' W 009°02'4 7.5
2018-Jun-12 05:30N 38°21' W 009°06'5 9.5
2018-Jun-12 05:00N 38°20' W 009°12'5 9.7
2018-Jun-12 04:30N 38°19' W 009°18'5 9.0
2018-Jun-12 04:00N 38°19' W 009°24'3 6.1
2018-Jun-12 03:30N 38°16' W 009°26'5 8.8
2018-Jun-12 02:59N 38°13' W 009°30'5 8.5
2018-Jun-12 02:24N 38°09' W 009°34'3 8.6
2018-Jun-12 02:00N 38°06' W 009°37'5 8.7
2018-Jun-12 01:29N 38°03' W 009°40'4 8.9
2018-Jun-12 01:00N 37°59' W 009°43'15 9.2
2018-Jun-11 23:21N 37°47' W 009°55'3 9.3
2018-Jun-11 23:00N 37°45' W 009°57'  

Dump ship's entire track history